createdAt,value
2023-02-01T00:02:18.373Z,6.10
2023-02-01T00:04:49.029Z,6.10
2023-02-01T00:07:16.843Z,6.10
2023-02-01T00:09:44.630Z,6.10
2023-02-01T00:12:12.838Z,6.10
2023-02-01T00:14:42.078Z,6.10
2023-02-01T00:17:09.913Z,6.10
2023-02-01T00:19:37.787Z,6.00
2023-02-01T00:22:05.575Z,6.00
2023-02-01T00:24:33.697Z,5.90
2023-02-01T00:27:01.537Z,5.80
2023-02-01T00:29:29.389Z,5.80
2023-02-01T00:31:58.510Z,5.80
2023-02-01T00:34:26.409Z,5.80
2023-02-01T00:36:54.202Z,5.90
2023-02-01T00:39:22.050Z,5.90
2023-02-01T00:41:49.889Z,5.90
2023-02-01T00:44:17.785Z,5.90
2023-02-01T00:46:46.016Z,5.90
2023-02-01T00:49:15.233Z,5.90
2023-02-01T00:51:43.052Z,5.90
2023-02-01T00:54:10.831Z,6.00
2023-02-01T00:56:38.596Z,6.00
2023-02-01T00:59:06.389Z,5.90
2023-02-01T01:01:34.261Z,6.00
2023-02-01T01:04:02.472Z,5.90
2023-02-01T01:06:33.656Z,5.90
2023-02-01T01:09:03.844Z,5.90
2023-02-01T01:11:33.807Z,5.80
2023-02-01T01:14:02.104Z,5.80
2023-02-01T01:16:31.937Z,5.80
2023-02-01T01:19:00.459Z,5.80
2023-02-01T01:21:29.039Z,6.00
2023-02-01T01:23:58.238Z,5.90
2023-02-01T01:26:28.359Z,5.90
2023-02-01T01:28:57.889Z,5.90
2023-02-01T01:31:26.838Z,5.90
2023-02-01T01:33:56.757Z,5.90
2023-02-01T01:36:25.887Z,5.80
2023-02-01T01:38:53.901Z,5.80
2023-02-01T01:41:25.417Z,5.80
2023-02-01T01:43:57.592Z,5.80
2023-02-01T01:46:29.681Z,5.80
2023-02-01T01:49:07.513Z,5.80
2023-02-01T01:51:39.932Z,5.80
2023-02-01T01:54:14.264Z,5.80
2023-02-01T01:56:44.039Z,5.80
2023-02-01T01:59:13.465Z,5.80
2023-02-01T02:01:41.570Z,5.80
2023-02-01T02:04:09.461Z,5.80
2023-02-01T02:06:46.361Z,5.80
2023-02-01T02:09:14.439Z,5.80
2023-02-01T02:11:43.614Z,5.80
2023-02-01T02:14:13.492Z,5.80
2023-02-01T02:17:01.029Z,5.70
2023-02-01T02:20:05.948Z,5.70
2023-02-01T02:23:12.809Z,5.70
2023-02-01T02:26:07.247Z,5.60
2023-02-01T02:29:11.667Z,5.60
2023-02-01T02:31:56.840Z,5.60
2023-02-01T02:34:29.722Z,5.60
2023-02-01T02:37:11.213Z,5.60
2023-02-01T02:39:51.169Z,5.60
2023-02-01T02:42:46.640Z,5.70
2023-02-01T02:45:40.089Z,5.70
2023-02-01T02:48:15.115Z,5.70
2023-02-01T02:51:08.836Z,5.60
2023-02-01T02:54:03.234Z,5.60
2023-02-01T02:56:49.521Z,5.60
2023-02-01T02:59:40.132Z,5.60
2023-02-01T03:02:27.288Z,5.60
2023-02-01T03:04:57.178Z,5.50
2023-02-01T03:07:55.018Z,5.50
2023-02-01T03:10:30.995Z,5.50
2023-02-01T03:13:06.492Z,5.50
2023-02-01T03:15:41.271Z,5.50
2023-02-01T03:18:17.182Z,5.50
2023-02-01T03:20:47.447Z,5.50
2023-02-01T03:23:20.109Z,5.50
2023-02-01T03:25:50.219Z,5.40
2023-02-01T03:28:22.428Z,5.40
2023-02-01T03:30:52.147Z,5.40
2023-02-01T03:33:23.536Z,5.40
2023-02-01T03:35:59.005Z,5.30
2023-02-01T03:38:33.890Z,5.30
2023-02-01T03:41:10.683Z,5.30
2023-02-01T03:43:46.387Z,5.40
2023-02-01T03:46:21.203Z,5.40
2023-02-01T03:48:51.328Z,5.40
2023-02-01T03:51:22.444Z,5.30
2023-02-01T03:53:53.779Z,5.30
2023-02-01T03:56:25.222Z,5.30
2023-02-01T03:59:00.472Z,5.30
2023-02-01T04:01:34.091Z,5.30
2023-02-01T04:04:02.566Z,5.30
2023-02-01T04:06:32.295Z,5.30
2023-02-01T04:09:05.576Z,5.30
2023-02-01T04:11:33.359Z,5.30
2023-02-01T04:14:05.177Z,5.30
2023-02-01T04:16:33.721Z,5.30
2023-02-01T04:19:02.749Z,5.30
2023-02-01T04:21:31.143Z,5.40
2023-02-01T04:23:58.966Z,5.40
2023-02-01T04:26:28.334Z,5.40
2023-02-01T04:28:56.148Z,5.50
2023-02-01T04:31:26.510Z,5.50
2023-02-01T04:33:55.103Z,5.50
2023-02-01T04:36:23.711Z,5.60
2023-02-01T04:38:52.039Z,5.60
2023-02-01T04:41:20.048Z,5.50
2023-02-01T04:43:49.808Z,5.40
2023-02-01T04:46:17.922Z,5.40
2023-02-01T04:48:45.812Z,5.30
2023-02-01T04:51:14.443Z,5.30
2023-02-01T04:53:42.237Z,5.30
2023-02-01T04:56:10.072Z,5.20
2023-02-01T04:58:37.947Z,5.10
2023-02-01T05:01:09.472Z,5.10
2023-02-01T05:03:37.430Z,5.10
2023-02-01T05:06:05.966Z,5.00
2023-02-01T05:08:34.454Z,5.10
2023-02-01T05:11:03.477Z,5.10
2023-02-01T05:13:49.062Z,5.00
2023-02-01T05:16:18.256Z,5.10
2023-02-01T05:18:46.085Z,5.00
2023-02-01T05:21:14.107Z,5.00
2023-02-01T05:23:55.896Z,5.00
2023-02-01T05:26:23.782Z,5.10
2023-02-01T05:28:51.730Z,5.00
2023-02-01T05:31:20.962Z,5.00
2023-02-01T05:33:49.055Z,5.00
2023-02-01T05:36:17.006Z,5.00
2023-02-01T05:38:44.870Z,4.90
2023-02-01T05:41:12.766Z,4.90
2023-02-01T05:43:40.621Z,4.90
2023-02-01T05:46:08.482Z,4.80
2023-02-01T05:48:37.666Z,4.80
2023-02-01T05:51:05.618Z,4.80
2023-02-01T05:53:33.640Z,4.80
2023-02-01T05:56:01.690Z,4.90
2023-02-01T05:58:32.654Z,4.90
2023-02-01T06:01:01.632Z,4.90
2023-02-01T06:03:29.915Z,4.90
2023-02-01T06:05:59.218Z,5.00
2023-02-01T06:08:27.379Z,4.90
2023-02-01T06:11:00.306Z,4.90
2023-02-01T06:13:28.442Z,4.80
2023-02-01T06:15:56.825Z,4.70
2023-02-01T06:18:24.913Z,4.70
2023-02-01T06:20:56.179Z,4.70
2023-02-01T06:23:26.389Z,4.80
2023-02-01T06:25:54.620Z,4.90
2023-02-01T06:28:22.577Z,5.00
2023-02-01T06:30:50.459Z,5.10
2023-02-01T06:33:19.600Z,5.10
2023-02-01T06:35:48.083Z,5.20
2023-02-01T06:38:16.437Z,5.30
2023-02-01T06:40:45.990Z,5.40
2023-02-01T06:43:13.840Z,5.40
2023-02-01T06:45:42.800Z,5.40
2023-02-01T06:48:10.697Z,5.50
2023-02-01T06:50:38.567Z,5.50
2023-02-01T06:53:06.431Z,5.40
2023-02-01T06:55:34.378Z,5.40
2023-02-01T06:58:04.001Z,5.30
2023-02-01T07:00:32.141Z,5.20
2023-02-01T07:03:00.683Z,5.20
2023-02-01T07:05:28.610Z,5.30
2023-02-01T07:07:56.499Z,5.30
2023-02-01T07:10:24.581Z,5.20
2023-02-01T07:12:52.697Z,5.20
2023-02-01T07:15:23.766Z,5.20
2023-02-01T07:17:53.459Z,5.20
2023-02-01T07:20:21.848Z,5.30
2023-02-01T07:22:50.184Z,5.20
2023-02-01T07:25:18.408Z,5.20
2023-02-01T07:27:49.860Z,5.30
2023-02-01T07:30:18.333Z,5.30
2023-02-01T07:32:47.678Z,5.40
2023-02-01T07:35:16.027Z,5.60
2023-02-01T07:37:43.890Z,5.70
2023-02-01T07:40:13.323Z,5.80
2023-02-01T07:42:41.132Z,6.00
2023-02-01T07:45:21.022Z,6.10
2023-02-01T07:47:53.134Z,6.10
2023-02-01T07:50:21.263Z,6.10
2023-02-01T07:52:49.258Z,6.20
2023-02-01T07:55:17.252Z,6.20
2023-02-01T07:57:45.093Z,6.20
2023-02-01T08:00:31.887Z,6.20
2023-02-01T08:03:01.733Z,6.20
2023-02-01T08:05:29.598Z,6.20
2023-02-01T08:07:57.499Z,6.20
2023-02-01T08:10:25.605Z,6.20
2023-02-01T08:12:53.605Z,6.20
2023-02-01T08:15:21.405Z,6.10
2023-02-01T08:17:50.377Z,6.20
2023-02-01T08:20:23.010Z,6.20
2023-02-01T08:22:54.214Z,6.20
2023-02-01T08:25:22.365Z,6.20
2023-02-01T08:27:50.694Z,6.20
2023-02-01T08:30:19.063Z,6.30
2023-02-01T08:32:46.878Z,6.30
2023-02-01T08:35:14.737Z,6.40
2023-02-01T08:37:43.862Z,6.60
2023-02-01T08:40:12.642Z,6.70
2023-02-01T08:42:52.820Z,6.70
2023-02-01T08:45:20.917Z,6.70
2023-02-01T08:47:48.876Z,6.70
2023-02-01T08:50:16.887Z,6.60
2023-02-01T08:52:46.154Z,6.50
2023-02-01T08:55:15.230Z,6.40
2023-02-01T08:57:43.841Z,6.30
2023-02-01T09:00:16.267Z,6.30
2023-02-01T09:02:44.454Z,6.20
2023-02-01T09:05:14.895Z,6.20
2023-02-01T09:07:42.685Z,6.20
2023-02-01T09:10:13.098Z,6.20
2023-02-01T09:12:41.582Z,6.30
2023-02-01T09:15:10.476Z,6.30
2023-02-01T09:17:38.419Z,6.30
2023-02-01T09:20:06.833Z,6.30
2023-02-01T09:22:34.643Z,6.30
2023-02-01T09:25:02.546Z,6.20
2023-02-01T09:27:31.707Z,6.20
2023-02-01T09:29:59.557Z,6.30
2023-02-01T09:32:27.644Z,6.40
2023-02-01T09:34:55.558Z,6.50
2023-02-01T09:37:23.471Z,6.50
2023-02-01T09:39:51.296Z,6.50
2023-02-01T09:42:31.033Z,6.50
2023-02-01T09:45:15.598Z,6.60
2023-02-01T09:47:50.957Z,6.70
2023-02-01T09:50:21.890Z,6.70
2023-02-01T09:52:57.443Z,6.70
2023-02-01T09:55:29.657Z,6.80
2023-02-01T09:58:01.572Z,6.90
2023-02-01T10:00:35.614Z,7.00
2023-02-01T10:03:03.631Z,7.20
2023-02-01T10:06:08.157Z,7.30
2023-02-01T10:08:45.144Z,7.40
2023-02-01T10:11:26.031Z,7.40
2023-02-01T10:14:02.438Z,7.50
2023-02-01T10:16:45.919Z,7.50
2023-02-01T10:19:32.008Z,7.40
2023-02-01T10:22:04.422Z,7.20
2023-02-01T10:24:44.625Z,7.20
2023-02-01T10:27:16.613Z,7.20
2023-02-01T10:29:47.327Z,7.20
2023-02-01T10:32:23.029Z,7.20
2023-02-01T10:34:57.695Z,7.30
2023-02-01T10:37:33.285Z,7.20
2023-02-01T10:40:07.666Z,7.30
2023-02-01T10:42:35.596Z,7.40
2023-02-01T10:45:05.406Z,7.50
2023-02-01T10:47:34.603Z,7.50
2023-02-01T10:50:16.524Z,7.60
2023-02-01T10:52:49.112Z,7.70
2023-02-01T10:55:30.087Z,7.80
2023-02-01T10:57:59.615Z,7.90
2023-02-01T11:00:28.527Z,7.90
2023-02-01T11:02:58.209Z,8.10
2023-02-01T11:05:27.459Z,8.10
2023-02-01T11:07:57.034Z,8.10
2023-02-01T11:10:39.515Z,8.20
2023-02-01T11:13:07.477Z,8.20
2023-02-01T11:15:35.273Z,8.20
2023-02-01T11:18:18.811Z,8.20
2023-02-01T11:20:50.276Z,8.20
2023-02-01T11:23:20.471Z,8.20
2023-02-01T11:25:53.697Z,8.10
2023-02-01T11:28:24.698Z,8.30
2023-02-01T11:30:55.255Z,8.40
2023-02-01T11:33:30.796Z,8.50
2023-02-01T11:35:59.988Z,8.60
2023-02-01T11:38:31.249Z,8.70
2023-02-01T11:41:15.099Z,8.60
2023-02-01T11:43:55.145Z,8.50
2023-02-01T11:46:27.337Z,8.50
2023-02-01T11:48:59.015Z,8.40
2023-02-01T11:51:42.060Z,8.40
2023-02-01T11:54:40.210Z,8.30
2023-02-01T11:57:21.021Z,8.50
2023-02-01T12:00:07.044Z,8.50
2023-02-01T12:03:03.261Z,8.50
2023-02-01T12:05:47.458Z,8.40
2023-02-01T12:08:48.368Z,8.40
2023-02-01T12:11:31.171Z,8.40
2023-02-01T12:14:10.672Z,8.40
2023-02-01T12:16:49.650Z,8.40
2023-02-01T12:19:31.832Z,8.50
2023-02-01T12:22:17.813Z,8.40
2023-02-01T12:25:13.307Z,8.30
2023-02-01T12:28:01.928Z,8.30
2023-02-01T12:30:56.237Z,8.30
2023-02-01T12:33:36.537Z,8.30
2023-02-01T12:36:14.899Z,8.30
2023-02-01T12:38:54.052Z,8.40
2023-02-01T12:41:49.363Z,8.30
2023-02-01T12:44:26.749Z,8.30
2023-02-01T12:46:57.507Z,8.40
2023-02-01T12:49:32.333Z,8.30
2023-02-01T12:52:05.218Z,8.20
2023-02-01T12:54:40.022Z,8.20
2023-02-01T12:57:11.808Z,8.20
2023-02-01T12:59:43.802Z,8.10
2023-02-01T13:02:18.602Z,8.10
2023-02-01T13:04:59.815Z,8.00
2023-02-01T13:07:32.772Z,8.00
2023-02-01T13:10:12.487Z,8.00
2023-02-01T13:12:46.509Z,7.90
2023-02-01T13:15:19.475Z,7.90
2023-02-01T13:17:50.453Z,7.80
2023-02-01T13:20:26.203Z,7.90
2023-02-01T13:23:00.047Z,7.80
2023-02-01T13:25:35.629Z,7.80
2023-02-01T13:28:08.709Z,7.90
2023-02-01T13:30:50.202Z,7.80
2023-02-01T13:33:56.409Z,7.70
2023-02-01T13:36:42.718Z,7.70
2023-02-01T13:39:46.275Z,7.70
2023-02-01T13:42:20.668Z,7.70
2023-02-01T13:44:52.036Z,7.60
2023-02-01T13:47:28.555Z,7.60
2023-02-01T13:49:59.170Z,7.60
2023-02-01T13:52:32.070Z,7.60
2023-02-01T13:55:26.691Z,7.60
2023-02-01T13:58:14.550Z,7.70
2023-02-01T14:00:43.882Z,7.70
2023-02-01T14:03:20.716Z,7.80
2023-02-01T14:06:17.434Z,7.90
2023-02-01T14:09:15.139Z,7.90
2023-02-01T14:11:45.249Z,7.80
2023-02-01T14:14:49.797Z,7.80
2023-02-01T14:17:34.982Z,7.70
2023-02-01T14:20:38.664Z,7.80
2023-02-01T14:23:12.969Z,7.70
2023-02-01T14:25:42.067Z,7.70
2023-02-01T14:28:14.593Z,7.70
2023-02-01T14:30:45.734Z,7.70
2023-02-01T14:33:20.511Z,7.80
2023-02-01T14:36:06.546Z,7.70
2023-02-01T14:38:35.777Z,7.80
2023-02-01T14:41:16.550Z,7.70
2023-02-01T14:44:31.370Z,7.70
2023-02-01T14:47:34.645Z,7.60
2023-02-01T14:50:34.447Z,7.60
2023-02-01T14:53:25.656Z,7.60
2023-02-01T14:55:56.595Z,7.60
2023-02-01T14:58:37.377Z,7.50
2023-02-01T15:01:08.137Z,7.60
2023-02-01T15:03:47.649Z,7.50
2023-02-01T15:06:30.415Z,7.50
2023-02-01T15:09:02.611Z,7.50
2023-02-01T15:11:31.117Z,7.40
2023-02-01T15:14:00.859Z,7.40
2023-02-01T15:16:29.208Z,7.40
2023-02-01T15:19:12.499Z,7.30
2023-02-01T15:21:49.054Z,7.30
2023-02-01T15:24:22.417Z,7.20
2023-02-01T15:26:50.922Z,7.20
2023-02-01T15:29:19.892Z,7.20
2023-02-01T15:31:50.724Z,7.30
2023-02-01T15:34:21.117Z,7.20
2023-02-01T15:37:02.063Z,7.20
2023-02-01T15:39:32.443Z,7.20
2023-02-01T15:42:03.842Z,7.20
2023-02-01T15:44:35.742Z,7.10
2023-02-01T15:47:10.649Z,7.00
2023-02-01T15:49:45.048Z,6.80
2023-02-01T15:52:24.218Z,6.80
2023-02-01T15:54:54.431Z,6.70
2023-02-01T15:57:31.247Z,6.70
2023-02-01T16:00:02.257Z,6.70
2023-02-01T16:02:45.761Z,6.70
2023-02-01T16:05:34.153Z,6.70
2023-02-01T16:08:04.953Z,6.70
2023-02-01T16:10:39.752Z,6.70
2023-02-01T16:13:08.045Z,6.70
2023-02-01T16:15:35.917Z,6.80
2023-02-01T16:18:04.060Z,6.70
2023-02-01T16:20:34.241Z,6.80
2023-02-01T16:23:02.484Z,6.80
2023-02-01T16:25:30.690Z,6.80
2023-02-01T16:27:58.502Z,6.80
2023-02-01T16:30:26.827Z,6.80
2023-02-01T16:32:56.185Z,6.80
2023-02-01T16:35:26.999Z,6.80
2023-02-01T16:37:56.607Z,6.80
2023-02-01T16:40:24.536Z,6.80
2023-02-01T16:42:56.130Z,6.90
2023-02-01T16:45:24.466Z,7.00
2023-02-01T16:47:56.120Z,7.00
2023-02-01T16:50:26.138Z,7.00
2023-02-01T16:52:54.596Z,7.20
2023-02-01T16:55:24.401Z,7.20
2023-02-01T16:57:52.645Z,7.00
2023-02-01T17:00:24.871Z,6.60
2023-02-01T17:02:53.782Z,5.60
2023-02-01T17:05:22.465Z,4.60
2023-02-01T17:07:50.677Z,3.70
2023-02-01T17:10:34.740Z,3.10
2023-02-01T17:13:03.179Z,2.90
2023-02-01T17:15:36.824Z,2.60
2023-02-01T17:18:05.341Z,2.50
2023-02-01T17:20:34.405Z,2.40
2023-02-01T17:23:03.182Z,2.30
2023-02-01T17:25:33.151Z,2.30
2023-02-01T17:28:01.443Z,2.20
2023-02-01T17:30:29.896Z,2.20
2023-02-01T17:32:57.713Z,2.20
2023-02-01T17:35:28.622Z,2.30
2023-02-01T17:37:56.963Z,2.20
2023-02-01T17:40:25.246Z,2.10
2023-02-01T17:42:57.774Z,2.00
2023-02-01T17:45:36.342Z,1.90
2023-02-01T17:48:05.231Z,1.90
2023-02-01T17:50:35.872Z,1.90
2023-02-01T17:53:09.714Z,1.90
2023-02-01T17:55:39.148Z,1.90
2023-02-01T17:58:08.428Z,2.00
2023-02-01T18:00:38.123Z,2.00
2023-02-01T18:03:06.819Z,2.00
2023-02-01T18:05:41.383Z,2.10
2023-02-01T18:08:09.779Z,2.10
2023-02-01T18:10:37.918Z,2.10
2023-02-01T18:13:05.803Z,2.20
2023-02-01T18:15:36.144Z,2.20
2023-02-01T18:18:04.058Z,2.30
2023-02-01T18:20:32.209Z,2.40
2023-02-01T18:23:00.150Z,2.50
2023-02-01T18:25:30.164Z,2.60
2023-02-01T18:27:58.458Z,2.70
2023-02-01T18:30:30.824Z,2.70
2023-02-01T18:33:00.156Z,2.70
2023-02-01T18:35:29.896Z,2.80
2023-02-01T18:37:58.806Z,2.80
2023-02-01T18:40:28.480Z,2.80
2023-02-01T18:42:56.520Z,2.80
2023-02-01T18:45:30.635Z,2.90
2023-02-01T18:48:00.657Z,2.90
2023-02-01T18:50:30.690Z,2.90
2023-02-01T18:52:59.977Z,3.00
2023-02-01T18:55:29.429Z,3.00
2023-02-01T18:57:57.191Z,3.00
2023-02-01T19:00:25.566Z,3.10
2023-02-01T19:02:54.474Z,3.10
2023-02-01T19:05:24.314Z,3.00
2023-02-01T19:07:52.355Z,3.10
2023-02-01T19:10:22.371Z,3.10
2023-02-01T19:12:51.518Z,3.00
2023-02-01T19:15:20.080Z,3.00
2023-02-01T19:17:49.241Z,2.90
2023-02-01T19:20:20.344Z,2.90
2023-02-01T19:22:49.968Z,2.90
2023-02-01T19:25:19.622Z,2.90
2023-02-01T19:27:47.981Z,2.90
2023-02-01T19:30:16.657Z,2.90
2023-02-01T19:32:44.525Z,2.90
2023-02-01T19:35:15.175Z,2.90
2023-02-01T19:37:43.758Z,3.00
2023-02-01T19:40:16.531Z,3.00
2023-02-01T19:42:44.671Z,3.10
2023-02-01T19:45:13.305Z,3.10
2023-02-01T19:47:41.175Z,3.10
2023-02-01T19:50:11.601Z,3.20
2023-02-01T19:52:39.505Z,3.20
2023-02-01T19:55:07.689Z,3.20
2023-02-01T19:57:37.023Z,3.30
2023-02-01T20:00:06.544Z,3.40
2023-02-01T20:02:33.621Z,3.40
2023-02-01T20:05:01.544Z,3.50
2023-02-01T20:07:29.410Z,3.50
2023-02-01T20:09:57.234Z,3.60
2023-02-01T20:12:25.133Z,3.60
2023-02-01T20:14:55.502Z,3.50
2023-02-01T20:17:23.267Z,3.50
2023-02-01T20:19:51.035Z,3.50
2023-02-01T20:22:19.205Z,3.50
2023-02-01T20:24:47.056Z,3.50
2023-02-01T20:27:15.803Z,3.50
2023-02-01T20:29:43.627Z,3.50
2023-02-01T20:32:12.771Z,3.50
2023-02-01T20:34:40.569Z,3.50
2023-02-01T20:37:08.452Z,3.50
2023-02-01T20:39:36.204Z,3.50
2023-02-01T20:42:04.594Z,3.40
2023-02-01T20:44:32.353Z,3.40
2023-02-01T20:47:00.337Z,3.40
2023-02-01T20:49:29.478Z,3.30
2023-02-01T20:51:57.929Z,3.30
2023-02-01T20:54:25.935Z,3.30
2023-02-01T20:56:53.719Z,3.30
2023-02-01T20:59:21.501Z,3.30
2023-02-01T21:01:55.429Z,3.30
2023-02-01T21:04:27.141Z,3.20
2023-02-01T21:06:56.839Z,3.20
2023-02-01T21:09:25.073Z,3.30
2023-02-01T21:11:53.523Z,3.30
2023-02-01T21:14:21.726Z,3.30
2023-02-01T21:16:49.623Z,3.30
2023-02-01T21:19:19.150Z,3.30
2023-02-01T21:21:46.943Z,3.30
2023-02-01T21:24:16.048Z,3.30
2023-02-01T21:26:43.920Z,3.30
2023-02-01T21:29:13.916Z,3.30
2023-02-01T21:31:43.487Z,3.30
2023-02-01T21:34:11.558Z,3.40
2023-02-01T21:36:39.342Z,3.30
2023-02-01T21:39:10.803Z,3.30
2023-02-01T21:41:57.744Z,3.20
2023-02-01T21:44:25.589Z,3.20
2023-02-01T21:46:55.416Z,3.20
2023-02-01T21:49:25.183Z,3.20
2023-02-01T21:51:53.389Z,3.10
2023-02-01T21:54:21.228Z,3.10
2023-02-01T21:56:50.375Z,3.10
2023-02-01T21:59:18.405Z,3.10
2023-02-01T22:01:46.682Z,3.00
2023-02-01T22:04:14.418Z,3.00
2023-02-01T22:06:45.863Z,3.00
2023-02-01T22:09:17.979Z,3.00
2023-02-01T22:11:46.189Z,3.10
2023-02-01T22:14:15.994Z,3.10
2023-02-01T22:16:44.416Z,3.10
2023-02-01T22:19:12.537Z,3.20
2023-02-01T22:21:42.040Z,3.30
2023-02-01T22:24:11.631Z,3.30
2023-02-01T22:26:40.038Z,3.30
2023-02-01T22:29:12.984Z,3.30
2023-02-01T22:31:42.455Z,3.30
2023-02-01T22:34:11.617Z,3.30
2023-02-01T22:36:42.904Z,3.40
2023-02-01T22:39:11.043Z,3.40
2023-02-01T22:41:39.142Z,3.40
2023-02-01T22:44:07.642Z,3.40
2023-02-01T22:46:35.424Z,3.40
2023-02-01T22:49:05.713Z,3.50
2023-02-01T22:51:34.315Z,3.50
2023-02-01T22:54:02.606Z,3.50
2023-02-01T22:56:32.432Z,3.40
2023-02-01T22:59:02.293Z,3.40
2023-02-01T23:01:30.517Z,3.40
2023-02-01T23:03:59.316Z,3.30
2023-02-01T23:06:29.278Z,3.30
2023-02-01T23:08:58.364Z,3.20
2023-02-01T23:11:27.091Z,3.30
2023-02-01T23:13:55.141Z,3.30
2023-02-01T23:16:23.370Z,3.30
2023-02-01T23:18:51.397Z,3.20
2023-02-01T23:21:21.313Z,3.20
2023-02-01T23:23:52.263Z,3.20
2023-02-01T23:26:20.927Z,3.20
2023-02-01T23:28:50.597Z,3.10
2023-02-01T23:31:18.698Z,3.10
2023-02-01T23:33:49.320Z,3.10
2023-02-01T23:36:18.013Z,3.00
2023-02-01T23:38:46.379Z,3.00
2023-02-01T23:41:18.777Z,3.00
2023-02-01T23:43:57.879Z,3.00
2023-02-01T23:46:26.701Z,3.00
2023-02-01T23:48:54.781Z,3.00
2023-02-01T23:51:24.030Z,2.90
2023-02-01T23:53:52.296Z,3.00
2023-02-01T23:56:23.915Z,3.00
2023-02-01T23:58:52.665Z,3.10
